createdAt,value
2022-11-08T00:00:16.999Z,897.98
2022-11-08T00:01:17.012Z,898.24
2022-11-08T00:02:17.110Z,899.52
2022-11-08T00:03:17.083Z,900.08
2022-11-08T00:04:16.946Z,900.43
2022-11-08T00:05:16.950Z,900.90
2022-11-08T00:06:16.938Z,901.04
2022-11-08T00:07:16.919Z,900.72
2022-11-08T00:08:17.114Z,900.00
2022-11-08T00:09:16.924Z,899.20
2022-11-08T00:10:16.890Z,898.40
2022-11-08T00:11:16.900Z,898.04
2022-11-08T00:12:16.880Z,897.50
2022-11-08T00:13:17.588Z,897.29
2022-11-08T00:14:16.830Z,897.07
2022-11-08T00:15:16.830Z,896.61
2022-11-08T00:16:16.842Z,896.35
2022-11-08T00:17:16.804Z,896.54
2022-11-08T00:18:17.113Z,896.45
2022-11-08T00:19:17.801Z,896.57
2022-11-08T00:20:16.772Z,896.93
2022-11-08T00:21:16.845Z,896.95
2022-11-08T00:22:17.009Z,897.53
2022-11-08T00:23:16.733Z,898.52
2022-11-08T00:24:16.721Z,898.96
2022-11-08T00:25:16.732Z,899.42
2022-11-08T00:26:16.722Z,900.17
2022-11-08T00:27:16.690Z,901.40
2022-11-08T00:28:17.127Z,901.43
2022-11-08T00:29:16.691Z,901.85
2022-11-08T00:30:16.665Z,903.29
2022-11-08T00:31:16.697Z,905.00
2022-11-08T00:32:16.655Z,907.12
2022-11-08T00:33:16.623Z,909.04
2022-11-08T00:34:16.617Z,911.69
2022-11-08T00:35:16.605Z,914.16
2022-11-08T00:36:16.639Z,916.86
2022-11-08T00:37:16.574Z,918.51
2022-11-08T00:38:16.999Z,919.91
2022-11-08T00:39:16.557Z,920.82
2022-11-08T00:40:16.571Z,921.68
2022-11-08T00:41:16.564Z,922.37
2022-11-08T00:42:16.538Z,922.62
2022-11-08T00:43:16.978Z,923.75
2022-11-08T00:44:16.492Z,924.61
2022-11-08T00:45:16.491Z,925.91
2022-11-08T00:46:16.485Z,926.99
2022-11-08T00:47:16.474Z,928.09
2022-11-08T00:48:16.817Z,928.90
2022-11-08T00:49:16.444Z,930.42
2022-11-08T00:50:16.417Z,931.78
2022-11-08T00:51:16.423Z,932.50
2022-11-08T00:52:16.433Z,933.00
2022-11-08T00:53:16.385Z,933.80
2022-11-08T00:54:16.376Z,935.16
2022-11-08T00:55:16.365Z,935.79
2022-11-08T00:56:16.375Z,936.51
2022-11-08T00:57:16.340Z,936.89
2022-11-08T00:58:16.635Z,937.68
2022-11-08T00:59:16.329Z,937.70
2022-11-08T01:00:16.305Z,937.52
2022-11-08T01:01:16.346Z,936.82
2022-11-08T01:02:16.322Z,936.82
2022-11-08T01:03:16.288Z,937.09
2022-11-08T01:04:16.267Z,936.97
2022-11-08T01:05:16.259Z,937.23
2022-11-08T01:06:16.507Z,937.33
2022-11-08T01:07:16.245Z,937.06
2022-11-08T01:08:16.592Z,937.64
2022-11-08T01:09:16.211Z,937.73
2022-11-08T01:10:16.199Z,937.30
2022-11-08T01:11:16.182Z,937.24
2022-11-08T01:12:16.463Z,936.77
2022-11-08T01:13:16.167Z,936.62
2022-11-08T01:14:16.138Z,935.70
2022-11-08T01:15:16.222Z,934.39
2022-11-08T01:16:16.131Z,932.82
2022-11-08T01:17:16.360Z,931.31
2022-11-08T01:18:16.495Z,929.09
2022-11-08T01:19:16.373Z,926.41
2022-11-08T01:20:16.073Z,924.51
2022-11-08T01:21:16.091Z,922.19
2022-11-08T01:22:16.058Z,920.15
2022-11-08T01:23:16.051Z,918.43
2022-11-08T01:24:16.028Z,917.63
2022-11-08T01:25:16.319Z,917.04
2022-11-08T01:26:16.032Z,917.03
2022-11-08T01:27:15.999Z,917.04
2022-11-08T01:28:16.287Z,916.42
2022-11-08T01:29:15.980Z,915.22
2022-11-08T01:30:15.949Z,913.19
2022-11-08T01:31:15.981Z,910.62
2022-11-08T01:32:15.950Z,908.80
2022-11-08T01:33:15.941Z,906.87
2022-11-08T01:34:15.911Z,905.43
2022-11-08T01:35:16.186Z,903.93
2022-11-08T01:36:16.166Z,903.09
2022-11-08T01:37:15.896Z,902.47
2022-11-08T01:38:16.290Z,900.82
2022-11-08T01:39:16.125Z,899.85
2022-11-08T01:40:15.963Z,898.87
2022-11-08T01:41:15.835Z,898.07
2022-11-08T01:42:15.848Z,897.74
2022-11-08T01:43:15.814Z,898.39
2022-11-08T01:44:15.802Z,899.36
2022-11-08T01:45:15.795Z,901.74
2022-11-08T01:46:15.782Z,902.97
2022-11-08T01:47:15.781Z,903.31
2022-11-08T01:48:16.187Z,903.71
2022-11-08T01:49:15.742Z,904.46
2022-11-08T01:50:15.745Z,905.24
2022-11-08T01:51:15.716Z,906.12
2022-11-08T01:52:16.559Z,907.48
2022-11-08T01:53:15.692Z,908.09
2022-11-08T01:54:15.692Z,909.40
2022-11-08T01:55:15.942Z,910.26
2022-11-08T01:56:15.681Z,910.84
2022-11-08T01:57:15.653Z,911.82
2022-11-08T01:58:16.042Z,913.02
2022-11-08T01:59:15.623Z,914.26
2022-11-08T02:00:15.619Z,914.17
2022-11-08T02:01:16.422Z,914.63
2022-11-08T02:02:15.661Z,914.92
2022-11-08T02:03:15.593Z,915.90
2022-11-08T02:04:15.576Z,916.41
2022-11-08T02:05:15.581Z,916.08
2022-11-08T02:06:15.557Z,914.10
2022-11-08T02:07:15.536Z,912.26
2022-11-08T02:08:16.844Z,911.71
2022-11-08T02:09:15.506Z,912.06
2022-11-08T02:10:15.517Z,911.63
2022-11-08T02:11:15.492Z,911.58
2022-11-08T02:12:16.385Z,912.00
2022-11-08T02:13:15.468Z,910.92
2022-11-08T02:14:15.447Z,910.72
2022-11-08T02:15:15.451Z,910.04
2022-11-08T02:16:15.460Z,909.32
2022-11-08T02:17:15.436Z,907.34
2022-11-08T02:18:15.808Z,905.40
2022-11-08T02:19:15.397Z,905.19
2022-11-08T02:20:15.636Z,905.43
2022-11-08T02:21:15.386Z,906.20
2022-11-08T02:22:15.357Z,906.88
2022-11-08T02:23:15.360Z,908.59
2022-11-08T02:24:15.325Z,909.82
2022-11-08T02:25:15.320Z,910.89
2022-11-08T02:26:15.327Z,912.17
2022-11-08T02:27:15.296Z,913.37
2022-11-08T02:28:15.548Z,915.10
2022-11-08T02:29:15.289Z,916.24
2022-11-08T02:30:15.265Z,917.03
2022-11-08T02:31:15.265Z,917.21
2022-11-08T02:32:15.259Z,917.88
2022-11-08T02:33:15.253Z,918.48
2022-11-08T02:34:15.232Z,919.05
2022-11-08T02:35:15.209Z,919.74
2022-11-08T02:36:15.479Z,920.15
2022-11-08T02:37:15.178Z,920.87
2022-11-08T02:38:15.425Z,921.65
2022-11-08T02:39:15.178Z,921.98
2022-11-08T02:40:16.028Z,922.88
2022-11-08T02:41:15.171Z,923.72
2022-11-08T02:42:15.403Z,924.66
2022-11-08T02:43:15.152Z,924.37
2022-11-08T02:44:15.132Z,924.16
2022-11-08T02:45:15.081Z,924.18
2022-11-08T02:46:15.111Z,923.16
2022-11-08T02:47:15.072Z,923.19
2022-11-08T02:48:15.389Z,923.68
2022-11-08T02:49:15.333Z,923.92
2022-11-08T02:50:15.047Z,924.42
2022-11-08T02:51:15.035Z,925.31
2022-11-08T02:52:15.033Z,926.23
2022-11-08T02:53:15.011Z,927.37
2022-11-08T02:54:14.990Z,928.28
2022-11-08T02:55:14.971Z,929.26
2022-11-08T02:56:15.270Z,930.10
2022-11-08T02:57:15.209Z,930.78
2022-11-08T02:58:15.185Z,931.10
2022-11-08T02:59:14.953Z,931.96
2022-11-08T03:00:15.191Z,932.46
2022-11-08T03:01:14.994Z,932.82
2022-11-08T03:02:15.002Z,932.85
2022-11-08T03:03:14.890Z,932.96
2022-11-08T03:04:14.872Z,933.59
2022-11-08T03:05:14.862Z,933.54
2022-11-08T03:06:14.871Z,933.32
2022-11-08T03:07:14.842Z,933.35
2022-11-08T03:08:15.121Z,933.50
2022-11-08T03:09:15.082Z,934.03
2022-11-08T03:10:15.068Z,934.36
2022-11-08T03:11:14.830Z,935.32
2022-11-08T03:12:14.779Z,935.71
2022-11-08T03:13:14.772Z,936.06
2022-11-08T03:14:14.749Z,936.71
2022-11-08T03:15:14.743Z,937.56
2022-11-08T03:16:14.765Z,938.85
2022-11-08T03:17:14.733Z,940.06
2022-11-08T03:18:14.813Z,940.87
2022-11-08T03:19:14.707Z,942.10
2022-11-08T03:20:14.688Z,942.53
2022-11-08T03:21:14.683Z,942.52
2022-11-08T03:22:14.664Z,943.15
2022-11-08T03:23:14.656Z,944.16
2022-11-08T03:24:19.171Z,945.46
2022-11-08T03:25:14.624Z,946.54
2022-11-08T03:26:14.669Z,947.68
2022-11-08T03:27:14.626Z,947.99
2022-11-08T03:28:17.144Z,948.54
2022-11-08T03:29:14.587Z,949.09
2022-11-08T03:30:14.577Z,949.74
2022-11-08T03:31:14.565Z,950.87
2022-11-08T03:32:14.555Z,952.18
2022-11-08T03:33:14.552Z,953.99
2022-11-08T03:34:14.506Z,956.13
2022-11-08T03:35:14.512Z,958.51
2022-11-08T03:36:14.534Z,960.17
2022-11-08T03:37:14.497Z,962.09
2022-11-08T03:38:14.487Z,963.95
2022-11-08T03:39:14.743Z,965.55
2022-11-08T03:40:14.455Z,967.13
2022-11-08T03:41:14.464Z,968.70
2022-11-08T03:42:14.422Z,970.38
2022-11-08T03:43:14.415Z,972.33
2022-11-08T03:44:14.394Z,974.15
2022-11-08T03:45:14.404Z,975.76
2022-11-08T03:46:14.677Z,976.85
2022-11-08T03:47:14.376Z,977.91
2022-11-08T03:48:14.367Z,979.13
2022-11-08T03:49:14.367Z,980.35
2022-11-08T03:50:14.612Z,981.24
2022-11-08T03:51:14.335Z,982.64
2022-11-08T03:52:14.308Z,983.61
2022-11-08T03:53:14.305Z,984.65
2022-11-08T03:54:14.296Z,985.77
2022-11-08T03:55:14.269Z,986.37
2022-11-08T03:56:14.301Z,987.08
2022-11-08T03:57:14.258Z,986.80
2022-11-08T03:58:14.289Z,986.41
2022-11-08T03:59:14.224Z,986.16
2022-11-08T04:00:14.519Z,986.17
2022-11-08T04:01:14.259Z,986.50
2022-11-08T04:02:14.318Z,987.30
2022-11-08T04:03:15.236Z,987.05
2022-11-08T04:04:14.178Z,986.55
2022-11-08T04:05:14.157Z,986.34
2022-11-08T04:06:14.157Z,985.57
2022-11-08T04:07:14.119Z,984.46
2022-11-08T04:08:14.197Z,985.05
2022-11-08T04:09:19.033Z,984.71
2022-11-08T04:10:15.101Z,985.26
2022-11-08T04:11:14.086Z,984.83
2022-11-08T04:12:14.068Z,985.53
2022-11-08T04:13:14.350Z,986.29
2022-11-08T04:14:14.342Z,986.66
2022-11-08T04:15:14.050Z,986.37
2022-11-08T04:16:17.902Z,987.45
2022-11-08T04:17:14.018Z,987.59
2022-11-08T04:18:14.007Z,987.95
2022-11-08T04:19:13.989Z,988.32
2022-11-08T04:20:13.986Z,988.40
2022-11-08T04:21:13.979Z,988.97
2022-11-08T04:22:13.950Z,989.73
2022-11-08T04:23:13.957Z,990.67
2022-11-08T04:24:13.940Z,991.51
2022-11-08T04:25:13.950Z,992.03
2022-11-08T04:26:13.932Z,992.91
2022-11-08T04:27:14.209Z,993.98
2022-11-08T04:28:13.885Z,993.96
2022-11-08T04:29:13.890Z,993.78
2022-11-08T04:30:13.869Z,993.85
2022-11-08T04:31:13.899Z,993.38
2022-11-08T04:32:13.830Z,992.96
2022-11-08T04:33:13.841Z,993.35
2022-11-08T04:34:13.824Z,992.97
2022-11-08T04:35:13.810Z,991.87
2022-11-08T04:36:13.804Z,989.14
2022-11-08T04:37:14.061Z,987.69
2022-11-08T04:38:13.761Z,985.07
2022-11-08T04:39:13.759Z,983.90
2022-11-08T04:40:14.012Z,983.66
2022-11-08T04:41:13.758Z,982.06
2022-11-08T04:42:13.721Z,981.09
2022-11-08T04:43:13.720Z,979.46
2022-11-08T04:44:13.692Z,978.88
2022-11-08T04:45:13.693Z,978.50
2022-11-08T04:46:13.682Z,977.95
2022-11-08T04:47:13.654Z,977.25
2022-11-08T04:48:13.651Z,976.96
2022-11-08T04:49:14.396Z,976.40
2022-11-08T04:50:13.654Z,974.74
2022-11-08T04:51:13.631Z,973.33
2022-11-08T04:52:13.604Z,972.27
2022-11-08T04:53:14.532Z,970.92
2022-11-08T04:54:13.593Z,970.42
2022-11-08T04:55:13.564Z,970.01
2022-11-08T04:56:13.563Z,970.62
2022-11-08T04:57:13.573Z,970.66
2022-11-08T04:58:13.534Z,970.54
2022-11-08T04:59:13.517Z,970.08
2022-11-08T05:00:13.784Z,969.90
2022-11-08T05:01:13.902Z,969.93
2022-11-08T05:02:13.663Z,969.18
2022-11-08T05:03:13.491Z,969.13
2022-11-08T05:04:13.474Z,969.25
2022-11-08T05:05:13.444Z,970.27
2022-11-08T05:06:13.453Z,970.15
2022-11-08T05:07:13.439Z,970.43
2022-11-08T05:08:13.415Z,970.18
2022-11-08T05:09:13.415Z,969.83
2022-11-08T05:10:13.664Z,969.46
2022-11-08T05:11:13.685Z,970.44
2022-11-08T05:12:13.378Z,971.08
2022-11-08T05:13:13.389Z,971.46
2022-11-08T05:14:13.385Z,971.10
2022-11-08T05:15:13.334Z,971.75
2022-11-08T05:16:13.335Z,972.64
2022-11-08T05:17:13.594Z,972.83
2022-11-08T05:18:13.320Z,972.29
2022-11-08T05:19:13.553Z,971.44
2022-11-08T05:20:13.295Z,970.99
2022-11-08T05:21:13.285Z,971.53
2022-11-08T05:22:13.266Z,971.73
2022-11-08T05:23:13.265Z,972.42
2022-11-08T05:24:13.245Z,972.77
2022-11-08T05:25:13.229Z,973.52
2022-11-08T05:26:13.234Z,973.40
2022-11-08T05:27:13.213Z,973.05
2022-11-08T05:28:13.194Z,974.19
2022-11-08T05:29:13.169Z,974.66
2022-11-08T05:30:13.178Z,975.12
2022-11-08T05:31:13.175Z,975.47
2022-11-08T05:32:13.159Z,975.78
2022-11-08T05:33:13.144Z,975.05
2022-11-08T05:34:13.139Z,974.95
2022-11-08T05:35:13.110Z,974.88
2022-11-08T05:36:13.227Z,975.06
2022-11-08T05:37:13.085Z,975.52
2022-11-08T05:38:13.078Z,976.23
2022-11-08T05:39:13.059Z,976.76
2022-11-08T05:40:13.067Z,977.01
2022-11-08T05:41:13.060Z,976.41
2022-11-08T05:42:13.919Z,976.62
2022-11-08T05:43:13.025Z,976.62
2022-11-08T05:44:13.317Z,976.34
2022-11-08T05:45:13.001Z,976.36
2022-11-08T05:46:12.989Z,975.36
2022-11-08T05:47:13.288Z,973.33
2022-11-08T05:48:13.227Z,971.86
2022-11-08T05:49:12.940Z,970.00
2022-11-08T05:50:18.241Z,966.12
2022-11-08T05:51:13.966Z,964.44
2022-11-08T05:52:12.924Z,963.52
2022-11-08T05:53:12.917Z,963.40
2022-11-08T05:54:13.181Z,963.99
2022-11-08T05:55:12.877Z,962.77
2022-11-08T05:56:12.880Z,962.86
2022-11-08T05:57:12.929Z,963.14
2022-11-08T05:58:12.849Z,963.61
2022-11-08T05:59:12.849Z,964.30
2022-11-08T06:00:12.833Z,964.74
2022-11-08T06:01:13.098Z,964.95
2022-11-08T06:02:12.868Z,965.69
2022-11-08T06:03:12.838Z,966.50
2022-11-08T06:04:12.782Z,966.98
2022-11-08T06:05:12.780Z,967.61
2022-11-08T06:06:12.749Z,967.91
2022-11-08T06:07:12.741Z,967.90
2022-11-08T06:08:12.734Z,968.29
2022-11-08T06:09:12.715Z,968.14
2022-11-08T06:10:12.702Z,968.40
2022-11-08T06:11:12.708Z,967.76
2022-11-08T06:12:12.673Z,966.68
2022-11-08T06:13:12.658Z,964.74
2022-11-08T06:14:13.451Z,963.72
2022-11-08T06:15:12.623Z,964.13
2022-11-08T06:16:12.661Z,964.34
2022-11-08T06:17:12.631Z,964.59
2022-11-08T06:18:12.602Z,964.14
2022-11-08T06:19:12.584Z,963.07
2022-11-08T06:20:12.860Z,961.43
2022-11-08T06:21:12.853Z,959.41
2022-11-08T06:22:12.560Z,958.12
2022-11-08T06:23:13.572Z,958.13
2022-11-08T06:24:12.563Z,957.93
2022-11-08T06:25:12.521Z,957.41
2022-11-08T06:26:12.523Z,951.51
2022-11-08T06:27:12.524Z,950.07
2022-11-08T06:28:12.512Z,948.74
2022-11-08T06:29:12.480Z,947.84
2022-11-08T06:30:12.484Z,948.07
2022-11-08T06:31:12.474Z,947.63
2022-11-08T06:32:12.443Z,947.06
2022-11-08T06:33:12.479Z,947.60
2022-11-08T06:34:12.435Z,947.08
2022-11-08T06:35:12.422Z,947.10
2022-11-08T06:36:12.403Z,946.72
2022-11-08T06:37:12.564Z,946.93
2022-11-08T06:38:12.381Z,946.40
2022-11-08T06:39:12.373Z,944.34
2022-11-08T06:40:12.642Z,943.10
2022-11-08T06:41:12.386Z,942.19
2022-11-08T06:42:12.335Z,941.39
2022-11-08T06:43:18.022Z,940.87
2022-11-08T06:44:13.315Z,940.09
2022-11-08T06:45:12.516Z,939.17
2022-11-08T06:46:12.284Z,938.19
2022-11-08T06:47:12.291Z,937.91
2022-11-08T06:48:12.255Z,938.37
2022-11-08T06:49:12.244Z,937.52
2022-11-08T06:50:12.235Z,935.87
2022-11-08T06:51:12.237Z,934.25
2022-11-08T06:52:12.216Z,933.47
2022-11-08T06:53:12.248Z,932.42
2022-11-08T06:54:17.581Z,932.07
2022-11-08T06:55:13.175Z,931.95
2022-11-08T06:56:12.168Z,933.52
2022-11-08T06:57:13.395Z,935.23
2022-11-08T06:58:12.159Z,936.86
2022-11-08T06:59:12.127Z,937.95
2022-11-08T07:00:12.123Z,937.61
2022-11-08T07:01:12.180Z,936.77
2022-11-08T07:02:12.170Z,937.28
2022-11-08T07:03:12.136Z,937.77
2022-11-08T07:04:12.085Z,938.65
2022-11-08T07:05:12.063Z,937.88
2022-11-08T07:06:12.058Z,935.72
2022-11-08T07:07:12.046Z,934.01
2022-11-08T07:08:12.019Z,932.25
2022-11-08T07:09:12.009Z,929.42
2022-11-08T07:10:13.151Z,928.70
2022-11-08T07:11:12.023Z,928.43
2022-11-08T07:12:11.982Z,928.47
2022-11-08T07:13:11.971Z,929.22
2022-11-08T07:14:12.295Z,931.90
2022-11-08T07:15:11.942Z,933.51
2022-11-08T07:16:11.948Z,935.70
2022-11-08T07:17:11.918Z,938.31
2022-11-08T07:18:11.971Z,940.53
2022-11-08T07:19:11.886Z,943.74
2022-11-08T07:20:11.924Z,944.84
2022-11-08T07:21:11.889Z,944.67
2022-11-08T07:22:11.859Z,943.21
2022-11-08T07:23:12.808Z,942.15
2022-11-08T07:24:11.852Z,941.09
2022-11-08T07:25:11.820Z,940.91
2022-11-08T07:26:11.819Z,939.19
2022-11-08T07:27:11.831Z,940.43
2022-11-08T07:28:11.790Z,945.51
2022-11-08T07:29:15.806Z,944.49
2022-11-08T07:30:12.782Z,943.96
2022-11-08T07:31:11.805Z,943.11
2022-11-08T07:32:11.741Z,939.38
2022-11-08T07:33:11.742Z,938.92
2022-11-08T07:34:12.582Z,938.60
2022-11-08T07:35:11.701Z,936.64
2022-11-08T07:36:11.731Z,935.16
2022-11-08T07:37:11.693Z,935.17
2022-11-08T07:38:11.682Z,935.22
2022-11-08T07:39:11.653Z,937.31
2022-11-08T07:40:12.849Z,939.18
2022-11-08T07:41:11.635Z,946.16
2022-11-08T07:42:11.644Z,949.79
2022-11-08T07:43:13.078Z,955.65
2022-11-08T07:44:11.612Z,951.38
2022-11-08T07:45:11.591Z,954.19
2022-11-08T07:46:11.596Z,952.80
2022-11-08T07:47:11.594Z,956.27
2022-11-08T07:48:12.849Z,958.09
2022-11-08T07:49:11.550Z,959.68
2022-11-08T07:50:14.270Z,958.06
2022-11-08T07:51:12.544Z,958.87
2022-11-08T07:52:11.515Z,956.38
2022-11-08T07:53:11.515Z,961.38
2022-11-08T07:54:11.586Z,962.06
2022-11-08T07:55:11.482Z,960.33
2022-11-08T07:56:11.484Z,955.50
2022-11-08T07:57:11.460Z,960.29
2022-11-08T07:58:11.456Z,962.84
2022-11-08T07:59:11.433Z,938.95
2022-11-08T08:00:11.441Z,933.51
2022-11-08T08:01:11.440Z,949.81
2022-11-08T08:02:11.469Z,944.82
2022-11-08T08:03:12.248Z,939.68
2022-11-08T08:04:11.647Z,942.00
2022-11-08T08:05:11.365Z,959.68
2022-11-08T08:06:11.388Z,949.87
2022-11-08T08:07:11.621Z,950.94
2022-11-08T08:08:11.315Z,953.00
2022-11-08T08:09:11.316Z,968.27
2022-11-08T08:10:11.581Z,971.30
2022-11-08T08:11:11.307Z,978.32
2022-11-08T08:12:11.283Z,967.97
2022-11-08T08:13:11.285Z,974.85
2022-11-08T08:14:11.267Z,963.92
2022-11-08T08:15:11.248Z,959.92
2022-11-08T08:16:11.520Z,951.19
2022-11-08T08:17:11.231Z,950.77
2022-11-08T08:18:11.236Z,953.60
2022-11-08T08:19:11.206Z,951.05
2022-11-08T08:20:11.207Z,954.69
2022-11-08T08:21:11.187Z,956.67
2022-11-08T08:22:11.167Z,968.77
2022-11-08T08:23:12.287Z,973.37
2022-11-08T08:24:11.169Z,966.48
2022-11-08T08:25:11.138Z,958.41
2022-11-08T08:26:11.148Z,957.68
2022-11-08T08:27:11.124Z,957.89
2022-11-08T08:28:11.105Z,958.12
2022-11-08T08:29:11.097Z,965.84
2022-11-08T08:30:11.555Z,964.90
2022-11-08T08:31:11.089Z,965.00
2022-11-08T08:32:11.058Z,968.36
2022-11-08T08:34:11.038Z,969.17
2022-11-08T08:35:11.019Z,971.55
2022-11-08T08:36:11.029Z,971.72
2022-11-08T08:37:11.000Z,969.81
2022-11-08T08:38:10.992Z,963.26
2022-11-08T08:39:10.970Z,965.06
2022-11-08T08:40:11.255Z,965.30
2022-11-08T08:41:10.981Z,969.35
2022-11-08T08:42:10.943Z,970.28
2022-11-08T08:43:11.853Z,981.13
2022-11-08T08:44:10.932Z,985.32
2022-11-08T08:45:14.925Z,987.55
2022-11-08T08:46:11.304Z,986.03
2022-11-08T08:47:10.900Z,987.93
2022-11-08T08:48:10.909Z,980.80
2022-11-08T08:49:10.871Z,984.84
2022-11-08T08:50:10.890Z,985.76
2022-11-08T08:51:10.864Z,981.03
2022-11-08T08:52:10.834Z,983.10
2022-11-08T08:53:10.884Z,982.62
2022-11-08T08:54:11.063Z,984.14
2022-11-08T08:55:10.806Z,982.49
2022-11-08T08:56:10.807Z,983.39
2022-11-08T08:57:10.812Z,985.91
2022-11-08T08:58:10.785Z,986.71
2022-11-08T09:02:11.714Z,990.19
2022-11-08T09:03:11.002Z,991.60
2022-11-08T09:04:10.720Z,993.12
2022-11-08T09:05:10.802Z,993.79
2022-11-08T09:06:10.711Z,994.15
2022-11-08T09:07:10.793Z,994.00
2022-11-08T09:08:10.808Z,994.54
2022-11-08T09:09:11.204Z,995.78
2022-11-08T09:10:10.704Z,996.34
2022-11-08T09:11:10.756Z,997.84
2022-11-08T09:12:11.902Z,998.53
2022-11-08T09:13:10.675Z,997.16
2022-11-08T09:14:10.986Z,996.50
2022-11-08T09:15:10.575Z,996.27
2022-11-08T09:16:10.582Z,995.16
2022-11-08T09:17:10.555Z,993.89
2022-11-08T09:18:10.606Z,992.51
2022-11-08T09:19:10.516Z,992.23
2022-11-08T09:20:10.523Z,990.75
2022-11-08T09:21:10.518Z,989.53
2022-11-08T09:22:10.611Z,989.63
2022-11-08T09:23:10.757Z,990.06
2022-11-08T09:24:10.481Z,988.65
2022-11-08T09:25:10.504Z,987.55
2022-11-08T09:26:10.455Z,986.47
2022-11-08T09:27:10.448Z,985.21
2022-11-08T09:28:10.412Z,986.16
2022-11-08T09:29:10.400Z,985.51
2022-11-08T09:30:10.663Z,984.97
2022-11-08T09:31:10.421Z,984.63
2022-11-08T09:32:10.368Z,984.57
2022-11-08T09:33:10.403Z,984.48
2022-11-08T09:34:10.347Z,983.42
2022-11-08T09:35:10.340Z,981.61
2022-11-08T09:36:10.328Z,980.08
2022-11-08T09:37:10.329Z,978.77
2022-11-08T09:38:10.312Z,976.12
2022-11-08T09:39:10.308Z,973.81
2022-11-08T09:40:10.384Z,971.12
2022-11-08T09:41:10.279Z,968.88
2022-11-08T09:42:10.257Z,966.87
2022-11-08T09:43:10.240Z,962.62
2022-11-08T09:44:10.232Z,958.27
2022-11-08T09:45:10.225Z,954.17
2022-11-08T09:46:10.234Z,950.37
2022-11-08T09:47:10.200Z,946.55
2022-11-08T09:48:10.180Z,945.07
2022-11-08T09:49:10.169Z,942.30
2022-11-08T09:50:10.198Z,940.87
2022-11-08T09:51:11.010Z,941.40
2022-11-08T09:52:10.141Z,941.37
2022-11-08T09:53:10.152Z,942.44
2022-11-08T09:54:10.110Z,943.40
2022-11-08T09:55:10.109Z,944.53
2022-11-08T09:56:10.101Z,949.39
2022-11-08T09:57:10.083Z,953.32
2022-11-08T09:58:10.063Z,955.96
2022-11-08T09:59:10.052Z,958.84
2022-11-08T10:00:10.052Z,960.62
2022-11-08T10:01:10.047Z,962.80
2022-11-08T10:02:10.145Z,965.85
2022-11-08T10:03:10.069Z,968.70
2022-11-08T10:04:09.993Z,971.49
2022-11-08T10:05:09.978Z,974.29
2022-11-08T10:06:09.996Z,977.35
2022-11-08T10:07:10.138Z,980.43
2022-11-08T10:08:09.950Z,983.46
2022-11-08T10:09:10.227Z,986.16
2022-11-08T10:10:10.216Z,986.94
2022-11-08T10:11:09.938Z,986.59
2022-11-08T10:12:09.910Z,986.36
2022-11-08T10:13:10.170Z,985.63
2022-11-08T10:14:09.873Z,985.32
2022-11-08T10:15:09.876Z,985.46
2022-11-08T10:16:09.886Z,985.02
2022-11-08T10:17:09.931Z,985.18
2022-11-08T10:18:09.836Z,985.99
2022-11-08T10:19:10.137Z,986.47
2022-11-08T10:20:10.076Z,987.65
2022-11-08T10:21:09.815Z,989.51
2022-11-08T10:22:09.785Z,991.28
2022-11-08T10:23:10.044Z,992.76
2022-11-08T10:24:09.755Z,994.40
2022-11-08T10:25:09.754Z,994.68
2022-11-08T10:26:10.123Z,995.48
2022-11-08T10:27:09.746Z,995.24
2022-11-08T10:28:09.715Z,994.43
2022-11-08T10:29:09.734Z,993.60
2022-11-08T10:30:09.959Z,993.62
2022-11-08T10:31:09.698Z,992.96
2022-11-08T10:32:09.715Z,992.51
2022-11-08T10:33:09.668Z,991.88
2022-11-08T10:34:09.650Z,991.20
2022-11-08T10:35:09.648Z,990.39
2022-11-08T10:36:09.648Z,989.51
2022-11-08T10:37:09.630Z,987.90
2022-11-08T10:38:09.600Z,987.44
2022-11-08T10:39:09.588Z,986.34
2022-11-08T10:40:09.582Z,985.79
2022-11-08T10:41:09.587Z,985.17
2022-11-08T10:42:09.553Z,984.44
2022-11-08T10:43:09.733Z,985.29
2022-11-08T10:44:09.529Z,986.13
2022-11-08T10:45:09.508Z,987.20
2022-11-08T10:46:09.823Z,987.58
2022-11-08T10:47:09.503Z,988.02
2022-11-08T10:48:09.486Z,988.11
2022-11-08T10:49:09.480Z,988.36
2022-11-08T10:50:09.475Z,988.21
2022-11-08T10:51:09.481Z,987.08
2022-11-08T10:52:09.432Z,987.04
2022-11-08T10:53:09.692Z,987.45
2022-11-08T10:54:09.413Z,988.60
2022-11-08T10:55:09.415Z,989.22
2022-11-08T10:56:09.429Z,990.81
2022-11-08T10:57:09.385Z,991.69
2022-11-08T10:58:09.369Z,991.28
2022-11-08T10:59:09.354Z,991.34
2022-11-08T11:00:09.352Z,991.81
2022-11-08T11:01:09.351Z,991.36
2022-11-08T11:02:09.395Z,989.10
2022-11-08T11:03:09.309Z,986.28
2022-11-08T11:04:09.293Z,984.11
2022-11-08T11:05:09.302Z,980.76
2022-11-08T11:06:09.310Z,977.90
2022-11-08T11:07:09.386Z,976.78
2022-11-08T11:08:09.244Z,975.64
2022-11-08T11:09:09.513Z,974.28
2022-11-08T11:10:09.245Z,974.03
2022-11-08T11:11:09.208Z,974.47
2022-11-08T11:12:09.202Z,974.92
2022-11-08T11:13:09.195Z,977.27
2022-11-08T11:14:10.818Z,978.41
2022-11-08T11:15:09.171Z,978.17
2022-11-08T11:16:09.154Z,978.23
2022-11-08T11:17:09.413Z,978.26
2022-11-08T11:18:09.123Z,979.68
2022-11-08T11:19:09.125Z,981.41
2022-11-08T11:20:09.133Z,981.99
2022-11-08T11:21:09.103Z,983.23
2022-11-08T11:22:09.073Z,983.33
2022-11-08T11:23:09.856Z,984.25
2022-11-08T11:24:09.104Z,984.41
2022-11-08T11:25:09.056Z,983.86
2022-11-08T11:26:09.053Z,983.28
2022-11-08T11:27:09.698Z,982.92
2022-11-08T11:28:09.005Z,982.08
2022-11-08T11:29:09.000Z,980.80
2022-11-08T11:30:11.779Z,978.46
2022-11-08T11:31:08.977Z,974.59
2022-11-08T11:32:08.946Z,970.48
2022-11-08T11:33:09.261Z,965.23
2022-11-08T11:34:08.938Z,961.05
2022-11-08T11:35:08.947Z,957.54
2022-11-08T11:36:13.317Z,956.09
2022-11-08T11:37:08.919Z,954.14
2022-11-08T11:38:08.877Z,952.91
2022-11-08T11:39:08.901Z,951.42
2022-11-08T11:40:08.889Z,950.30
2022-11-08T11:41:11.073Z,949.65
2022-11-08T11:42:31.160Z,949.02
2022-11-08T11:43:10.099Z,949.65
2022-11-08T11:44:08.828Z,948.75
2022-11-08T11:45:08.833Z,948.43
2022-11-08T11:46:08.841Z,947.80
2022-11-08T11:47:08.806Z,947.98
2022-11-08T11:48:08.777Z,951.64
2022-11-08T11:49:09.031Z,957.17
2022-11-08T11:50:09.036Z,960.13
2022-11-08T11:51:08.754Z,963.07
2022-11-08T11:52:08.730Z,965.96
2022-11-08T11:53:09.002Z,969.23
2022-11-08T11:54:08.699Z,970.69
2022-11-08T11:55:08.720Z,971.94
2022-11-08T11:56:08.690Z,972.84
2022-11-08T11:57:08.671Z,972.21
2022-11-08T11:58:08.659Z,971.15
2022-11-08T11:59:08.653Z,970.00
2022-11-08T12:00:08.640Z,967.52
2022-11-08T12:01:14.073Z,966.48
2022-11-08T12:02:09.631Z,965.10
2022-11-08T12:03:08.901Z,963.97
2022-11-08T12:04:08.591Z,961.64
2022-11-08T12:05:08.572Z,959.51
2022-11-08T12:06:08.882Z,958.57
2022-11-08T12:07:08.584Z,956.20
2022-11-08T12:08:08.542Z,951.04
2022-11-08T12:09:08.522Z,945.87
2022-11-08T12:10:08.532Z,940.15
2022-11-08T12:11:08.503Z,932.03
2022-11-08T12:12:08.484Z,923.92
2022-11-08T12:13:08.493Z,918.75
2022-11-08T12:14:08.461Z,917.42
2022-11-08T12:15:08.482Z,923.27
2022-11-08T12:16:08.477Z,926.25
2022-11-08T12:17:08.431Z,920.77
2022-11-08T12:18:08.420Z,920.54
2022-11-08T12:19:08.459Z,924.36
2022-11-08T12:20:08.392Z,925.07
2022-11-08T12:21:08.435Z,924.71
2022-11-08T12:22:08.366Z,926.17
2022-11-08T12:23:08.384Z,926.68
2022-11-08T12:24:08.340Z,927.41
2022-11-08T12:25:08.334Z,928.99
2022-11-08T12:26:08.378Z,930.38
2022-11-08T12:27:08.333Z,933.39
2022-11-08T12:28:08.295Z,933.20
2022-11-08T12:29:08.310Z,931.60
2022-11-08T12:30:08.289Z,927.68
2022-11-08T12:31:08.276Z,921.93
2022-11-08T12:32:09.275Z,914.25